Columbia Gorge Regional the Dalles Municipal Airport
KDLS : rendu visible

Aérodrome :











RETROUVEZ-NOUS SUR...

 
LOGIN :

S'inscrire | Disclaimer

   EN    FR    IT 

 









Légende :    VFR   VFR Marginal   IFR   IFR Intensif   IFR Très Intensif
Visi : 
Plafond : 
>= 8 km
>= 3000ft
5 à 8 km
1000 à 3000 ft
1500m à 5 km
500 à 1000 ft
800 à 1500m
200 à 500 ft
< 800m
< 200 ft
Symboles :   Orages  Brouillard  Fortes neiges  Fortes précipitations  Vent > 20 kt






- Altitude de l'aérodrome : 247 ft


KDLS - Columbia Gorge Regional the Dalles Municipal

DERNIER METAR :
  • 200353Z AUTO 32008KT 10SM SCT060 BKN090 10/06 A2993 RMK AO2 RAB17E27 SLP134 P0000 T01000061

METARs EXPIRÉS :
  • 200253Z AUTO 33012KT 10SM BKN060 OVC075 11/06 A2991 RMK AO2 SLP129 T01110061 51031
  • 200153Z AUTO 31012G17KT 10SM BKN075 11/06 A2989 RMK AO2 SLP121 T01060061

TAF KDLS
Valide du 20 à 00h jusqu'au 21 à 00h UTC


192320Z 2000/2024 30012KT P6SM SKC
FM200300 VRB05KT P6SM SKC
FM201200 VRB04KT 4SM BR FEW005
FM201800 08007KT P6SM SKC



MET'MAP, la Météo Aéronautique d'un coup d'oeil ! - Copyright ORBIFLY Décembre 2007 - Disclaimer

ORBIFLY MET'MAP TEAM :

Programmation & Développement : Alexandra Zaïnal
Conception & Développement : Baudouin d'Aumeries
Co-Programmation & Développement : Marc-Olivier Méhu
Soutien technique & logistique : Manuel Goepfert

Contact : metmap@orbifly.com




SOURCES & CREDITS :

   NOAA       Earth
Advisory